Yalaha, Florida
Current Conditions -  °F | °C
As of 11:53 AM on Wednesday 26 Nov 2014 (Local Time) from KLEE Reporting Station
Broken Clouds Broken Clouds  
Wind Chill: 53°   Ceiling: 12000
Heat Index: 53°   Visibility: 10mi
Dew Point: 49°   Wind: 10mph
Humidity: 86%   Direction: 310°NW
Pressure: 30.16"   Gusts: NA
Location:  28.75°N, 81.82°W
Report Text: KLEE 261653Z 31009KT 10SM SCT013 BKN120 12/09 A3016 RMK AO2 SLP211 T01170094
Loading
Personal Weather Stations






























Interactive Weather Map New forecast layout! Learn more

10-Day Weather Forecast

Advertisements
Track Severe Weather on mobile